Sterling, MI

9:56 PM EDT on April 26, 2015 (GMT -0400)
RAWS | | Change Station
CLOSE
Current Station
Personal Weather Station
Location: Alger, MI
Elevation: 783 ft
Nearby Weather Stations

Elev 783 ft 44.13 °N, 84.12 °W | Updated 55 minutes ago

Overcast
Overcast
49 °F
Feels Like 49 °F
N
3
Wind Variable Wind from ENE
Gusts 9.0 mph

Today
High -- | Low -- °F
--% Chance of Precip.
Yesterday
High -- | Low -- °F
Precip. -- in
6:35 AM 8:33 PM
First Quarter, 60% visible
Pressure 29.95 in
Visibility 10.0 miles
Clouds Scattered Clouds 6500 ft
Windchill 49 °F
Dew Point 33 °F
Humidity 54%
Rainfall in
Snow Depth Not available.
UV 0 out of 12
Pollen 10.20 out of 12
Air Quality Not available.
Flu Activity Regional
METAR KIKW 270133Z AUTO 00000KT 10SM SCT065 06/01 A2995 RMK AO2 T00550010

More Conditions Fewer Conditions

Pressure 29.95 in
Visibility 10.0 miles
Clouds Scattered Clouds 6500 ft
Windchill 49 °F
Dew Point 33 °F
Humidity 54%
Rainfall in
Snow Depth Not available.
UV 0 out of 12
Pollen 10.20 out of 12
Air Quality Not available.
Flu Activity Regional
METAR KIKW 270133Z AUTO 00000KT 10SM SCT065 06/01 A2995 RMK AO2 T00550010

More Conditions Fewer Conditions

The full scope of the disaster following a powerful 7.8-magnitude earthquake in Nepal may not come into view for days, but global charities are already sending emergency aid. Click to see how you can help.
Nowcast | as of 9:00 PM EDT on April 26, 2015

At 10 PM...partly cloudy. Temperature 45. North winds 9 mph. At 12 am...mostly cloudy. Temperature 42. North winds 9 mph. At 2 am...cloudy. Temperature 39. Northwest winds 7 mph. At 4 am...cloudy. Temperature 39. North winds 7 mph.

×

10-Day Weather Forecast

Almanac

Astronomy

Apr. 26, 2015 Rise Set
Actual Time
Civil Twilight
Nautical Twilight
Astronomical Twilight
Moon
Length of Visible Light
Length of Day
Tomorrow will be .
, % of the Moon is Illuminated

Today's Extremes

State Highs State Lows

Community

WunderPhotos

Upload Photos

1,817,202 photos uploaded!

WunderBlogs® & News

Nearby

Air Quality

  Air Quality AQ Index Pollutant
Not available.

Snow Depth

Station Depth Elevation

Earthquake Activity

City Distance Mag. Time & Date
Minimum magnitude displayed is 2.5.

Coastal Water Temperatures

Place Temperature

Stations

Nearby Weather Stations

Station Location Temp. Windchill Dew Point Humidity Wind Precip. Elev Updated Type